Time;durP1;ratioP1;P1;durP2;ratioP2;P2;SDS_P1;SDS_P2;PMS_P1;PMS_P2;Temp;Humidity;BMP_temperature;BMP_pressure;BME280_temperature;BME280_humidity;BME280_pressure;Samples;Min_cycle;Max_cycle;Signal;HPM_P1;HPM_P2
2023/06/17 00:01:20;;;;;;;12.73;11.80;;;21.40;53.00;;;;;;5002454;28;20209;-85
2023/06/17 00:03:45;;;;;;;12.23;11.32;;;21.40;53.10;;;;;;5002018;28;20178;-84
2023/06/17 00:06:11;;;;;;;13.48;12.57;;;21.50;52.90;;;;;;5008035;28;20370;-85
2023/06/17 00:08:37;;;;;;;14.30;13.20;;;21.40;52.60;;;;;;5003635;28;20251;-85
2023/06/17 00:11:03;;;;;;;17.38;15.77;;;21.40;52.80;;;;;;5000627;28;20186;-84
2023/06/17 00:13:29;;;;;;;13.30;12.40;;;21.50;52.50;;;;;;4995782;28;20296;-85
2023/06/17 00:15:56;;;;;;;13.63;12.75;;;21.40;52.90;;;;;;5008050;28;20162;-85
2023/06/17 00:18:26;;;;;;;13.23;12.32;;;21.20;53.60;;;;;;5009173;28;20167;-86
2023/06/17 00:20:52;;;;;;;12.82;11.82;;;21.10;54.30;;;;;;5010333;28;20198;-85
2023/06/17 00:23:21;;;;;;;12.40;11.40;;;21.10;54.30;;;;;;5009694;28;20233;-86
2023/06/17 00:25:48;;;;;;;12.45;11.60;;;21.10;54.00;;;;;;4997869;28;20185;-85
2023/06/17 00:28:14;;;;;;;13.13;12.23;;;21.10;54.00;;;;;;4994558;28;20274;-85
2023/06/17 00:30:39;;;;;;;12.60;11.80;;;21.10;53.80;;;;;;4996458;28;20217;-83
2023/06/17 00:33:05;;;;;;;14.05;13.15;;;21.00;54.20;;;;;;4996162;28;20206;-84
2023/06/17 00:35:31;;;;;;;16.77;15.57;;;21.00;54.10;;;;;;4996133;28;20174;-84
2023/06/17 00:37:57;;;;;;;13.40;12.48;;;20.90;54.00;;;;;;4996286;28;20178;-84
2023/06/17 00:40:23;;;;;;;12.70;11.80;;;20.80;54.10;;;;;;5001473;28;20179;-85
2023/06/17 00:42:48;;;;;;;12.23;11.43;;;20.60;54.70;;;;;;4998826;28;20221;-85
2023/06/17 00:45:14;;;;;;;11.48;10.57;;;20.30;56.30;;;;;;4995276;28;20185;-84
2023/06/17 00:47:40;;;;;;;10.73;10.02;;;20.10;56.60;;;;;;4999316;28;20219;-85
2023/06/17 00:50:09;;;;;;;10.23;9.63;;;20.10;56.60;;;;;;4998318;28;20224;-85
2023/06/17 00:52:36;;;;;;;11.05;10.35;;;20.20;55.90;;;;;;4996348;28;20247;-85
2023/06/17 00:55:02;;;;;;;11.93;11.02;;;20.20;56.10;;;;;;4998339;28;20223;-84
2023/06/17 00:57:28;;;;;;;12.90;11.90;;;20.30;55.90;;;;;;4997370;28;20540;-85
2023/06/17 00:59:54;;;;;;;14.10;13.10;;;20.40;55.80;;;;;;4997731;28;20177;-86
2023/06/17 01:02:25;;;;;;;17.90;16.42;;;20.50;55.40;;;;;;4996069;28;20199;-85
2023/06/17 01:04:52;;;;;;;15.50;14.40;;;20.50;55.30;;;;;;4995854;28;20185;-85
2023/06/17 01:07:30;;;;;;;14.57;13.50;;;20.40;55.70;;;;;;4999450;28;20691;-85
2023/06/17 01:10:05;;;;;;;13.20;12.20;;;20.30;56.10;;;;;;4997257;28;20183;-85
2023/06/17 01:12:31;;;;;;;12.40;11.38;;;20.30;56.20;;;;;;4997548;28;20204;-84
2023/06/17 01:14:57;;;;;;;12.48;11.48;;;20.30;55.90;;;;;;4998802;28;20208;-85
2023/06/17 01:17:25;;;;;;;11.70;10.95;;;20.30;55.80;;;;;;4999770;28;20185;-84
2023/06/17 01:19:54;;;;;;;13.00;12.10;;;20.30;55.60;;;;;;4998665;28;20186;-85
2023/06/17 01:22:21;;;;;;;13.88;12.55;;;20.30;55.80;;;;;;4999743;28;20236;-85
2023/06/17 01:24:49;;;;;;;13.07;12.10;;;20.30;56.40;;;;;;4998215;28;20180;-84
2023/06/17 01:27:15;;;;;;;12.10;11.20;;;20.30;56.30;;;;;;4997761;28;20280;-85
2023/06/17 01:29:41;;;;;;;13.48;12.43;;;20.30;56.30;;;;;;4998183;28;20184;-85
2023/06/17 01:32:07;;;;;;;13.43;12.43;;;20.40;56.00;;;;;;4998310;28;20690;-86
2023/06/17 01:34:55;;;;;;;13.68;12.38;;;20.30;56.20;;;;;;4997636;28;20259;-85
2023/06/17 01:37:28;;;;;;;12.73;11.82;;;20.30;56.40;;;;;;4999522;28;20164;-84
2023/06/17 01:39:57;;;;;;;12.63;11.57;;;20.20;56.80;;;;;;5001476;28;20196;-84
2023/06/17 01:42:31;;;;;;;12.50;11.52;;;20.10;57.60;;;;;;5001486;28;20204;-85
2023/06/17 01:45:03;;;;;;;13.18;12.10;;;20.10;57.50;;;;;;4983198;28;20177;-85
2023/06/17 01:47:28;;;;;;;12.73;11.63;;;19.80;58.10;;;;;;5001237;28;20184;-85
2023/06/17 01:49:59;;;;;;;11.40;10.50;;;19.70;59.30;;;;;;5000624;28;20176;-84
2023/06/17 01:52:25;;;;;;;11.27;10.48;;;19.80;58.80;;;;;;4999322;28;20233;-85
2023/06/17 01:54:51;;;;;;;12.85;11.77;;;19.80;59.00;;;;;;4998299;28;20260;-84
2023/06/17 01:57:20;;;;;;;12.65;11.65;;;19.80;59.00;;;;;;4998426;28;20188;-85
2023/06/17 01:59:46;;;;;;;12.27;11.23;;;19.70;60.70;;;;;;4999574;28;20191;-85
2023/06/17 02:02:11;;;;;;;12.10;11.10;;;19.50;62.00;;;;;;4999568;28;20215;-84
2023/06/17 02:04:37;;;;;;;11.80;10.90;;;19.40;61.10;;;;;;4999823;28;20201;-86
2023/06/17 02:07:03;;;;;;;12.05;11.10;;;19.20;63.00;;;;;;5001117;28;20225;-85
2023/06/17 02:09:29;;;;;;;10.90;10.02;;;18.90;64.00;;;;;;4983203;28;20200;-86
2023/06/17 02:11:55;;;;;;;11.55;10.75;;;18.80;64.10;;;;;;4987650;28;20221;-85
2023/06/17 02:14:20;;;;;;;11.82;10.82;;;18.80;65.00;;;;;;5000106;28;20210;-86
2023/06/17 02:16:47;;;;;;;11.45;10.45;;;18.90;63.70;;;;;;4998874;28;20186;-85
2023/06/17 02:19:14;;;;;;;11.18;10.38;;;19.10;63.40;;;;;;5000329;28;20188;-85
2023/06/17 02:21:41;;;;;;;11.43;10.63;;;19.20;62.10;;;;;;4998570;28;20202;-84
2023/06/17 02:24:07;;;;;;;11.50;10.52;;;19.20;62.20;;;;;;4997482;28;20198;-85
2023/06/17 02:26:33;;;;;;;11.25;10.45;;;19.00;63.50;;;;;;4997399;28;20189;-85
2023/06/17 02:28:59;;;;;;;11.30;10.43;;;19.10;62.70;;;;;;4997923;28;20190;-86
2023/06/17 02:31:28;;;;;;;10.57;9.88;;;19.00;62.80;;;;;;4997819;28;20190;-84
2023/06/17 02:33:55;;;;;;;11.55;10.60;;;19.10;62.80;;;;;;5000077;28;20194;-85
2023/06/17 02:36:21;;;;;;;11.45;10.52;;;18.80;64.50;;;;;;4999879;28;20958;-86
2023/06/17 02:38:47;;;;;;;10.95;10.25;;;18.50;66.90;;;;;;4999967;28;20383;-84
2023/06/17 02:41:13;;;;;;;10.90;10.10;;;18.50;65.40;;;;;;5000104;28;20220;-85
2023/06/17 02:43:38;;;;;;;16.63;10.00;;;18.60;65.30;;;;;;4999494;28;20252;-85
2023/06/17 02:46:04;;;;;;;10.98;10.18;;;18.60;65.10;;;;;;4996816;28;20190;-85
2023/06/17 02:48:30;;;;;;;10.68;9.77;;;18.50;65.60;;;;;;4996963;28;20677;-83
2023/06/17 02:50:55;;;;;;;9.60;8.98;;;18.40;65.80;;;;;;4996053;28;20182;-85
2023/06/17 02:53:22;;;;;;;12.68;10.55;;;18.50;65.80;;;;;;4994905;28;20234;-86
2023/06/17 02:55:49;;;;;;;11.57;10.68;;;18.60;64.70;;;;;;4996053;28;20189;-86
2023/06/17 02:58:17;;;;;;;10.82;10.13;;;18.70;64.60;;;;;;4996727;28;20167;-85
2023/06/17 03:00:43;;;;;;;11.00;10.20;;;18.80;64.50;;;;;;4996909;28;20277;-85
2023/06/17 03:03:10;;;;;;;11.20;10.35;;;18.70;64.30;;;;;;4996686;28;20210;-85
2023/06/17 03:05:38;;;;;;;10.65;9.95;;;18.50;64.90;;;;;;4999589;28;20178;-83
2023/06/17 03:08:06;;;;;;;10.98;10.07;;;18.40;65.10;;;;;;4993212;28;20179;-84
2023/06/17 03:10:35;;;;;;;10.82;9.93;;;18.30;65.10;;;;;;4981299;28;20258;-85
2023/06/17 03:13:01;;;;;;;10.05;9.35;;;18.30;65.40;;;;;;4980134;28;20217;-85
2023/06/17 03:15:27;;;;;;;10.73;9.90;;;18.30;65.10;;;;;;4981234;28;20175;-84
2023/06/17 03:17:53;;;;;;;10.77;9.70;;;18.40;65.20;;;;;;4979814;28;20171;-85
2023/06/17 03:20:20;;;;;;;11.70;10.60;;;18.50;65.00;;;;;;4997525;28;20179;-85
2023/06/17 03:22:47;;;;;;;10.35;9.55;;;18.50;64.60;;;;;;4996454;28;20213;-85
2023/06/17 03:25:13;;;;;;;10.85;9.95;;;18.30;65.70;;;;;;4997436;28;20261;-84
2023/06/17 03:27:39;;;;;;;11.27;10.30;;;18.30;65.70;;;;;;4997360;28;20190;-85
2023/06/17 03:30:05;;;;;;;10.88;9.93;;;18.30;65.60;;;;;;4997204;28;20175;-85
2023/06/17 03:32:31;;;;;;;12.38;11.35;;;18.40;65.40;;;;;;4992740;28;20273;-85
2023/06/17 03:34:57;;;;;;;11.23;10.30;;;18.30;65.50;;;;;;4999285;28;20187;-85
2023/06/17 03:37:23;;;;;;;11.48;10.57;;;18.40;64.90;;;;;;5000745;28;20238;-87
2023/06/17 03:39:48;;;;;;;11.35;10.43;;;18.40;64.40;;;;;;5000127;28;20182;-84
2023/06/17 03:42:17;;;;;;;11.57;10.68;;;18.40;64.50;;;;;;5000492;28;20202;-84
2023/06/17 03:44:43;;;;;;;11.55;10.25;;;18.40;64.80;;;;;;4999285;28;20178;-85
2023/06/17 03:47:08;;;;;;;11.43;10.52;;;18.50;65.10;;;;;;4997272;28;20190;-84
2023/06/17 03:49:34;;;;;;;11.57;10.57;;;18.50;64.80;;;;;;4998008;28;20166;-85
2023/06/17 03:52:00;;;;;;;12.02;11.15;;;18.50;65.10;;;;;;4996562;28;20198;-85
2023/06/17 03:54:26;;;;;;;12.20;11.10;;;18.50;64.60;;;;;;4997299;28;20208;-84
2023/06/17 03:56:51;;;;;;;11.18;10.38;;;18.50;64.60;;;;;;5000120;28;20175;-84
2023/06/17 03:59:17;;;;;;;16.20;10.63;;;18.50;64.60;;;;;;4999187;28;20206;-84
2023/06/17 04:01:43;;;;;;;10.80;9.73;;;18.40;64.60;;;;;;4999170;28;20198;-85
2023/06/17 04:04:09;;;;;;;11.32;10.23;;;18.30;64.70;;;;;;4998989;28;20181;-83
2023/06/17 04:06:36;;;;;;;11.55;10.45;;;18.30;65.50;;;;;;4999448;28;20214;-85
2023/06/17 04:09:03;;;;;;;11.93;10.77;;;18.30;65.50;;;;;;4985098;28;20248;-86
2023/06/17 04:11:32;;;;;;;11.50;10.50;;;18.30;65.50;;;;;;4980225;28;20238;-85
2023/06/17 04:13:59;;;;;;;12.40;10.60;;;18.30;65.30;;;;;;4978990;28;20198;-85
2023/06/17 04:16:25;;;;;;;11.20;10.30;;;18.40;65.40;;;;;;4985350;28;20174;-85
2023/06/17 04:18:52;;;;;;;11.30;10.60;;;18.20;66.80;;;;;;4994351;28;20601;-84
2023/06/17 04:21:18;;;;;;;12.23;11.25;;;18.10;67.70;;;;;;4993188;28;20186;-86
2023/06/17 04:23:43;;;;;;;12.07;11.20;;;18.10;67.50;;;;;;4992482;28;20182;-83
2023/06/17 04:26:12;;;;;;;10.95;10.20;;;18.00;68.30;;;;;;4994878;28;20878;-85
2023/06/17 04:28:38;;;;;;;11.20;10.30;;;18.10;68.60;;;;;;4993121;28;20193;-84
2023/06/17 04:31:04;;;;;;;11.57;10.57;;;18.10;68.70;;;;;;4985182;28;20316;-84
2023/06/17 04:33:37;;;;;;;11.70;10.77;;;18.10;68.60;;;;;;4972868;28;20750;-84
2023/06/17 04:36:08;;;;;;;12.35;11.35;;;18.10;68.60;;;;;;4975981;28;20217;-84
2023/06/17 04:38:39;;;;;;;11.55;10.40;;;18.20;68.70;;;;;;4984995;28;20597;-84
2023/06/17 04:41:05;;;;;;;11.95;11.05;;;18.40;67.90;;;;;;4985296;28;20265;-85
2023/06/17 04:43:36;;;;;;;12.52;11.55;;;18.40;68.90;;;;;;4978194;28;20240;-85
2023/06/17 04:46:02;;;;;;;11.52;10.43;;;18.20;69.40;;;;;;4985753;28;20186;-84
2023/06/17 04:48:31;;;;;;;12.60;11.60;;;18.20;69.70;;;;;;4988427;28;20186;-84
2023/06/17 04:50:57;;;;;;;12.32;11.15;;;18.20;70.70;;;;;;4983505;28;20253;-84
2023/06/17 04:53:26;;;;;;;13.75;12.27;;;18.30;70.60;;;;;;4982728;28;20333;-84
2023/06/17 04:55:52;;;;;;;12.68;11.77;;;18.30;70.30;;;;;;4987388;28;20189;-84
2023/06/17 04:58:18;;;;;;;13.57;12.38;;;18.40;69.90;;;;;;4985545;28;20719;-85
2023/06/17 05:00:44;;;;;;;13.80;12.43;;;18.50;69.90;;;;;;4987584;28;20700;-85
2023/06/17 05:03:10;;;;;;;13.10;11.80;;;18.50;70.20;;;;;;4986280;28;20289;-84
2023/06/17 05:05:36;;;;;;;13.63;12.32;;;18.50;70.20;;;;;;4988712;28;20224;-84
2023/06/17 05:08:01;;;;;;;13.25;12.25;;;18.50;69.70;;;;;;4987571;28;20182;-83
2023/06/17 05:10:27;;;;;;;12.63;11.82;;;18.60;68.60;;;;;;4988386;28;20186;-80
2023/06/17 05:12:52;;;;;;;12.57;11.52;;;18.70;68.30;;;;;;4977476;28;20221;-82
2023/06/17 05:15:18;;;;;;;13.02;11.85;;;18.60;68.00;;;;;;4983241;28;20213;-81
2023/06/17 05:17:44;;;;;;;12.82;11.82;;;18.70;68.20;;;;;;4992625;28;20838;-81
2023/06/17 05:20:10;;;;;;;11.75;10.95;;;18.70;68.60;;;;;;4995776;28;20252;-82
2023/06/17 05:22:35;;;;;;;12.38;11.40;;;18.60;69.30;;;;;;4989045;28;20238;-81
2023/06/17 05:25:01;;;;;;;12.77;11.73;;;18.80;69.60;;;;;;4989282;28;20209;-83
2023/06/17 05:27:28;;;;;;;12.65;11.57;;;18.80;69.10;;;;;;4986151;28;20179;-83
2023/06/17 05:29:54;;;;;;;12.23;11.05;;;18.80;70.00;;;;;;4984751;28;20597;-83
2023/06/17 05:32:22;;;;;;;13.10;12.15;;;18.70;70.50;;;;;;4987259;28;20206;-83
2023/06/17 05:34:48;;;;;;;11.90;11.00;;;18.70;69.70;;;;;;4984604;28;20187;-84
2023/06/17 05:37:14;;;;;;;13.05;11.75;;;18.80;70.60;;;;;;4981756;28;20305;-83
2023/06/17 05:39:40;;;;;;;13.45;12.25;;;18.80;70.00;;;;;;4984699;28;20187;-83
2023/06/17 05:42:06;;;;;;;12.27;11.40;;;19.00;67.60;;;;;;4981745;28;20201;-83
2023/06/17 05:44:31;;;;;;;12.68;11.48;;;19.10;67.90;;;;;;4976424;28;20191;-83
2023/06/17 05:46:57;;;;;;;12.60;11.52;;;19.30;67.10;;;;;;4980929;28;20543;-82
2023/06/17 05:49:23;;;;;;;12.93;11.85;;;19.20;67.30;;;;;;4983109;28;20186;-82
2023/06/17 05:51:48;;;;;;;12.43;11.32;;;19.20;68.10;;;;;;4980407;28;20431;-82
2023/06/17 05:54:14;;;;;;;12.80;11.80;;;19.20;68.00;;;;;;4974686;28;20202;-83
2023/06/17 05:56:40;;;;;;;12.98;11.93;;;19.30;67.50;;;;;;4983146;28;20179;-82
2023/06/17 05:59:06;;;;;;;14.02;12.70;;;19.40;66.40;;;;;;4980093;28;20740;-82
2023/06/17 06:01:31;;;;;;;12.93;11.80;;;19.50;64.60;;;;;;4979527;28;20687;-83
2023/06/17 06:03:57;;;;;;;12.75;11.73;;;19.60;63.70;;;;;;4979897;28;20187;-81
2023/06/17 06:06:22;;;;;;;12.18;11.18;;;19.70;63.90;;;;;;4978860;28;20191;-82
2023/06/17 06:08:48;;;;;;;13.02;11.88;;;19.80;63.90;;;;;;4977146;28;20917;-82
2023/06/17 06:11:15;;;;;;;12.05;11.13;;;20.00;63.50;;;;;;4980508;28;21552;-81
2023/06/17 06:13:40;;;;;;;11.88;11.07;;;20.00;63.60;;;;;;4977205;28;20205;-80
2023/06/17 06:16:06;;;;;;;11.93;11.13;;;20.00;63.30;;;;;;4976104;28;20238;-84
2023/06/17 06:18:32;;;;;;;12.85;11.80;;;20.00;63.90;;;;;;4979094;28;20187;-82
2023/06/17 06:20:58;;;;;;;12.32;11.32;;;20.00;62.80;;;;;;4983388;28;20211;-82
2023/06/17 06:23:23;;;;;;;12.27;11.23;;;20.00;63.10;;;;;;4976783;28;20223;-83
2023/06/17 06:25:49;;;;;;;12.75;11.85;;;20.10;62.80;;;;;;4975604;28;20456;-85
2023/06/17 06:28:15;;;;;;;13.23;12.02;;;20.20;62.20;;;;;;4980808;28;20204;-84
2023/06/17 06:30:40;;;;;;;12.38;11.45;;;20.40;61.40;;;;;;4978239;28;20198;-87
2023/06/17 06:33:06;;;;;;;12.25;11.10;;;20.50;59.90;;;;;;4978180;28;20216;-86
2023/06/17 06:35:32;;;;;;;12.38;11.27;;;20.60;59.10;;;;;;4986270;28;20225;-84
2023/06/17 06:37:57;;;;;;;12.13;11.23;;;20.70;59.20;;;;;;4981820;28;20193;-83
2023/06/17 06:40:23;;;;;;;12.15;11.30;;;20.70;55.80;;;;;;4982393;28;20196;-85
2023/06/17 06:42:49;;;;;;;12.90;12.00;;;20.80;58.00;;;;;;4982752;28;20598;-84
2023/06/17 06:45:14;;;;;;;13.35;12.15;;;20.80;58.40;;;;;;4987159;28;20197;-85
2023/06/17 06:47:40;;;;;;;13.23;12.23;;;21.00;57.30;;;;;;4986833;28;20202;-84
2023/06/17 06:50:06;;;;;;;12.65;11.63;;;21.10;57.30;;;;;;4991040;28;20205;-84
2023/06/17 06:52:32;;;;;;;11.85;10.88;;;21.10;55.70;;;;;;4995615;28;20210;-84
2023/06/17 06:54:57;;;;;;;12.82;11.93;;;21.10;54.90;;;;;;4999155;28;20661;-86
2023/06/17 06:57:23;;;;;;;11.93;11.10;;;20.90;56.70;;;;;;5001449;28;20584;-83
2023/06/17 06:59:49;;;;;;;11.77;10.98;;;21.00;56.30;;;;;;4998988;28;20183;-84
2023/06/17 07:02:15;;;;;;;13.32;12.27;;;21.20;56.30;;;;;;4997915;28;20203;-85
2023/06/17 07:04:42;;;;;;;13.30;12.30;;;21.30;54.50;;;;;;4997124;28;20202;-84
2023/06/17 07:07:07;;;;;;;11.98;11.07;;;21.40;54.10;;;;;;4999975;28;20181;-86
2023/06/17 07:09:33;;;;;;;12.25;11.35;;;21.50;54.50;;;;;;4981020;28;20179;-85
2023/06/17 07:11:59;;;;;;;12.00;11.02;;;21.50;55.40;;;;;;4984079;28;20240;-84
2023/06/17 07:14:24;;;;;;;11.43;10.65;;;21.50;53.60;;;;;;4987479;28;20195;-84
2023/06/17 07:16:50;;;;;;;11.80;10.88;;;21.60;52.80;;;;;;5002150;28;20189;-84
2023/06/17 07:19:15;;;;;;;12.32;11.38;;;21.50;53.60;;;;;;5002672;28;20674;-84
2023/06/17 07:21:41;;;;;;;12.20;11.30;;;21.70;52.30;;;;;;5002405;28;20206;-85
2023/06/17 07:24:07;;;;;;;11.55;10.82;;;21.90;52.40;;;;;;5000984;28;20233;-84
2023/06/17 07:26:32;;;;;;;12.07;10.98;;;21.80;52.20;;;;;;5003155;28;20265;-83
2023/06/17 07:29:01;;;;;;;12.85;11.95;;;22.00;51.50;;;;;;4998799;28;20212;-84
2023/06/17 07:31:28;;;;;;;12.15;11.15;;;22.10;51.80;;;;;;4996550;28;20190;-85
2023/06/17 07:33:54;;;;;;;12.40;11.60;;;22.20;52.70;;;;;;4996270;28;20277;-84
2023/06/17 07:36:20;;;;;;;12.65;11.55;;;22.10;51.60;;;;;;4996713;28;20201;-84
2023/06/17 07:38:46;;;;;;;13.18;11.93;;;22.30;51.60;;;;;;4995370;28;20178;-85
2023/06/17 07:41:12;;;;;;;12.95;12.07;;;22.40;50.20;;;;;;4997553;28;20182;-84
2023/06/17 07:43:38;;;;;;;11.75;11.00;;;22.40;52.00;;;;;;4996907;28;20225;-84
2023/06/17 07:46:03;;;;;;;12.50;11.52;;;22.60;51.60;;;;;;4997965;28;20182;-84
2023/06/17 07:48:31;;;;;;;12.55;11.60;;;22.80;51.20;;;;;;4997368;28;20186;-83
2023/06/17 07:50:56;;;;;;;13.18;12.27;;;22.90;51.60;;;;;;4999686;28;20551;-84
2023/06/17 07:53:23;;;;;;;12.43;11.63;;;22.80;49.40;;;;;;4999784;28;20208;-84
2023/06/17 07:55:49;;;;;;;12.32;11.50;;;22.90;52.40;;;;;;5000674;28;20262;-83
2023/06/17 07:58:15;;;;;;;12.77;11.98;;;23.20;52.60;;;;;;5001215;28;20175;-85
2023/06/17 08:00:40;;;;;;;13.57;12.68;;;23.30;53.60;;;;;;4999481;28;20222;-86
2023/06/17 08:03:06;;;;;;;13.82;12.93;;;23.30;52.00;;;;;;5000430;28;20200;-85
2023/06/17 08:05:32;;;;;;;15.80;14.50;;;23.50;51.30;;;;;;4997700;28;20202;-85
2023/06/17 08:07:58;;;;;;;15.00;13.80;;;23.70;51.40;;;;;;4998981;28;20264;-86
2023/06/17 08:10:23;;;;;;;15.02;13.85;;;23.80;51.20;;;;;;4997922;28;20593;-82
2023/06/17 08:12:49;;;;;;;15.00;13.95;;;23.90;51.40;;;;;;4997877;28;20210;-83
2023/06/17 08:15:15;;;;;;;14.40;13.50;;;24.00;51.10;;;;;;4992735;28;20186;-83
2023/06/17 08:17:42;;;;;;;14.23;13.32;;;24.00;50.30;;;;;;4999014;28;20186;-85
2023/06/17 08:20:09;;;;;;;14.82;13.85;;;24.20;50.70;;;;;;4999119;28;20217;-85
2023/06/17 08:22:36;;;;;;;15.23;14.02;;;24.10;49.80;;;;;;4999518;28;20230;-86
2023/06/17 08:25:03;;;;;;;16.02;14.93;;;24.30;48.90;;;;;;4998503;28;20185;-84
2023/06/17 08:27:28;;;;;;;15.90;14.80;;;24.30;47.50;;;;;;4997374;28;20182;-85
2023/06/17 08:29:54;;;;;;;15.23;14.10;;;24.40;47.60;;;;;;4999080;28;20237;-85
2023/06/17 08:32:20;;;;;;;16.98;15.63;;;24.50;48.60;;;;;;4996999;28;20193;-84
2023/06/17 08:34:46;;;;;;;17.25;16.05;;;24.50;47.00;;;;;;4995942;28;20209;-85
2023/06/17 08:37:11;;;;;;;17.10;15.98;;;24.70;46.10;;;;;;4995646;28;20182;-84
2023/06/17 08:39:39;;;;;;;17.58;16.25;;;24.90;44.70;;;;;;4997319;28;20184;-86
2023/06/17 08:42:06;;;;;;;16.63;15.45;;;25.00;44.70;;;;;;4998503;28;20588;-85
2023/06/17 08:44:38;;;;;;;16.83;15.82;;;25.20;44.00;;;;;;4997037;28;20186;-85
2023/06/17 08:47:05;;;;;;;18.02;16.90;;;25.20;43.10;;;;;;4998494;28;20243;-86
2023/06/17 08:49:30;;;;;;;18.02;16.77;;;25.40;42.40;;;;;;4998322;28;20241;-85
2023/06/17 08:51:59;;;;;;;17.63;16.58;;;25.50;41.50;;;;;;4998244;28;20701;-85
2023/06/17 08:54:30;;;;;;;17.50;16.45;;;25.60;40.40;;;;;;4998066;28;20209;-85
2023/06/17 08:56:56;;;;;;;17.65;16.65;;;25.50;41.40;;;;;;4997829;28;20428;-85
2023/06/17 08:59:22;;;;;;;17.45;16.40;;;25.40;41.30;;;;;;4997662;28;20261;-86
2023/06/17 09:01:51;;;;;;;17.83;16.83;;;25.70;40.30;;;;;;4997031;28;20194;-85
2023/06/17 09:04:20;;;;;;;18.83;17.83;;;25.70;39.90;;;;;;4996181;28;20182;-85
2023/06/17 09:06:47;;;;;;;18.08;17.13;;;25.90;38.90;;;;;;4994360;28;20202;-85
2023/06/17 09:09:13;;;;;;;18.80;17.60;;;26.00;40.40;;;;;;4991078;28;20194;-86
2023/06/17 09:11:38;;;;;;;20.10;18.98;;;26.20;39.30;;;;;;4990900;28;20199;-85
2023/06/17 09:14:04;;;;;;;19.27;18.17;;;26.20;39.30;;;;;;4990948;28;20202;-85
2023/06/17 09:16:33;;;;;;;20.55;19.48;;;26.00;39.00;;;;;;4997309;28;20179;-85
2023/06/17 09:19:13;;;;;;;20.38;19.33;;;26.20;38.20;;;;;;4997371;28;20540;-85
2023/06/17 09:21:39;;;;;;;24.15;22.85;;;26.40;38.10;;;;;;4996102;28;20768;-84
2023/06/17 09:24:07;;;;;;;23.17;21.77;;;26.70;36.50;;;;;;4996120;28;20209;-84
2023/06/17 09:26:35;;;;;;;22.42;21.33;;;26.90;37.00;;;;;;4997622;28;20175;-86
2023/06/17 09:29:08;;;;;;;21.85;20.75;;;27.00;36.30;;;;;;4999934;28;20194;-85
2023/06/17 09:31:51;;;;;;;20.35;19.35;;;27.20;36.50;;;;;;4998741;28;20194;-85
2023/06/17 09:34:17;;;;;;;19.48;18.42;;;27.20;35.50;;;;;;4998341;28;20301;-86
2023/06/17 09:36:44;;;;;;;17.77;16.83;;;27.40;34.70;;;;;;4998148;28;20198;-86
2023/06/17 09:39:11;;;;;;;19.35;18.13;;;27.60;33.40;;;;;;4997369;28;20216;-83
2023/06/17 09:41:42;;;;;;;18.77;17.58;;;27.80;34.90;;;;;;5000202;28;20753;-86
2023/06/17 09:44:08;;;;;;;17.80;16.80;;;27.90;33.80;;;;;;4998689;28;20726;-85
2023/06/17 09:46:36;;;;;;;19.25;18.25;;;28.10;33.40;;;;;;5001058;28;20182;-87
2023/06/17 09:49:15;;;;;;;21.08;19.73;;;28.30;31.90;;;;;;5000799;28;20532;-84
2023/06/17 09:51:42;;;;;;;22.45;21.27;;;28.40;31.00;;;;;;4999556;28;20224;-86
2023/06/17 09:54:09;;;;;;;25.08;23.88;;;28.50;30.70;;;;;;4999824;28;20562;-86
2023/06/17 09:56:36;;;;;;;22.40;21.33;;;28.40;30.00;;;;;;4999257;28;20625;-86
2023/06/17 09:59:08;;;;;;;22.48;21.20;;;28.30;30.70;;;;;;4997391;28;20178;-86
2023/06/17 10:01:39;;;;;;;25.30;24.00;;;28.50;30.10;;;;;;4995493;28;20205;-86
2023/06/17 10:04:07;;;;;;;25.23;24.02;;;28.60;29.60;;;;;;4995521;28;20171;-85
2023/06/17 10:06:35;;;;;;;26.10;24.75;;;28.80;29.30;;;;;;4988616;28;20178;-86
2023/06/17 10:09:06;;;;;;;28.40;27.10;;;29.00;29.60;;;;;;4982010;28;20183;-86
2023/06/17 10:11:33;;;;;;;28.30;27.10;;;29.30;28.50;;;;;;4976582;28;20265;-87
2023/06/17 10:14:10;;;;;;;27.80;26.50;;;29.40;28.20;;;;;;4978421;28;20235;-85
2023/06/17 10:16:41;;;;;;;26.27;25.17;;;29.70;28.00;;;;;;4978415;28;20225;-85
2023/06/17 10:19:10;;;;;;;27.77;26.50;;;29.70;28.00;;;;;;4985819;28;20179;-85
2023/06/17 10:21:40;;;;;;;27.17;25.77;;;29.80;28.20;;;;;;4998447;28;20202;-85
2023/06/17 10:24:08;;;;;;;27.67;26.48;;;29.50;27.00;;;;;;5000441;28;20205;-85
2023/06/17 10:26:33;;;;;;;27.88;26.75;;;29.50;26.80;;;;;;4998931;28;20246;-86
2023/06/17 10:29:06;;;;;;;28.48;27.08;;;29.90;27.30;;;;;;4997722;28;20206;-87
2023/06/17 10:31:42;;;;;;;27.88;26.58;;;30.10;25.80;;;;;;4997532;28;20914;-84
2023/06/17 10:34:21;;;;;;;26.55;25.45;;;30.30;25.20;;;;;;4997656;28;20970;-86
2023/06/17 10:36:57;;;;;;;26.63;25.42;;;30.70;24.80;;;;;;4997345;28;20646;-87
2023/06/17 10:39:22;;;;;;;25.60;24.50;;;30.80;23.70;;;;;;4998066;28;20254;-85
2023/06/17 10:41:52;;;;;;;25.83;24.63;;;31.20;23.10;;;;;;4998769;28;20230;-85
2023/06/17 10:44:24;;;;;;;25.92;24.77;;;31.40;23.40;;;;;;4998141;28;20818;-85
2023/06/17 10:46:50;;;;;;;26.08;24.95;;;31.40;24.30;;;;;;4998566;28;20209;-84
2023/06/17 10:49:17;;;;;;;25.90;24.85;;;31.10;24.60;;;;;;4998531;28;20178;-83
2023/06/17 10:51:50;;;;;;;24.83;23.73;;;31.20;25.00;;;;;;4997402;28;20368;-86
2023/06/17 10:54:32;;;;;;;25.83;24.63;;;31.10;24.60;;;;;;4992110;28;20291;-86
2023/06/17 10:57:00;;;;;;;25.88;24.77;;;31.20;23.90;;;;;;4985988;28;20579;-86
2023/06/17 10:59:27;;;;;;;26.77;25.30;;;31.00;23.90;;;;;;4995054;28;20182;-86
2023/06/17 11:02:03;;;;;;;25.13;23.92;;;31.30;23.10;;;;;;4993780;28;20700;-85
2023/06/17 11:04:31;;;;;;;25.25;24.05;;;30.80;23.10;;;;;;4993043;28;20190;-85
2023/06/17 11:07:02;;;;;;;25.15;23.98;;;30.80;23.50;;;;;;4994953;28;20378;-86
2023/06/17 11:09:29;;;;;;;26.17;24.90;;;31.40;23.30;;;;;;4995221;28;20579;-85
2023/06/17 11:11:56;;;;;;;26.45;25.10;;;31.80;21.70;;;;;;4995512;28;20232;-84
2023/06/17 11:14:22;;;;;;;27.58;26.42;;;32.20;20.80;;;;;;4994750;28;20225;-86
2023/06/17 11:16:51;;;;;;;28.80;27.60;;;32.40;21.50;;;;;;4996379;28;20932;-86
2023/06/17 11:19:17;;;;;;;28.02;26.92;;;32.60;21.90;;;;;;4996195;28;20242;-85
2023/06/17 11:21:42;;;;;;;29.70;28.42;;;32.70;21.70;;;;;;4996338;28;20229;-85
2023/06/17 11:24:10;;;;;;;29.50;28.17;;;32.60;21.20;;;;;;4991468;28;20201;-86
2023/06/17 11:26:36;;;;;;;26.80;25.70;;;32.60;22.60;;;;;;4994405;28;20886;-87
2023/06/17 11:29:03;;;;;;;27.77;26.23;;;32.10;23.90;;;;;;4994450;28;20190;-86
2023/06/17 11:31:40;;;;;;;27.20;26.00;;;32.60;23.90;;;;;;4995150;28;20575;-85
2023/06/17 11:34:07;;;;;;;27.73;26.40;;;32.60;23.50;;;;;;4994123;28;20213;-85
2023/06/17 11:36:35;;;;;;;29.23;28.08;;;32.70;22.60;;;;;;4993394;28;20174;-86
2023/06/17 11:39:02;;;;;;;30.23;29.00;;;32.90;22.40;;;;;;4997474;28;20178;-86
2023/06/17 11:41:28;;;;;;;30.23;28.73;;;33.00;22.60;;;;;;4996868;28;20178;-85
2023/06/17 11:43:54;;;;;;;28.70;27.50;;;32.80;23.30;;;;;;4995300;28;20183;-86
2023/06/17 11:46:20;;;;;;;29.85;28.45;;;32.80;22.90;;;;;;4995611;28;20899;-87
2023/06/17 11:48:48;;;;;;;30.45;29.25;;;32.70;23.10;;;;;;4993734;28;20214;-85
2023/06/17 11:51:15;;;;;;;32.63;30.73;;;33.00;22.90;;;;;;4993686;28;20189;-87
2023/06/17 11:53:44;;;;;;;31.08;29.75;;;33.10;22.50;;;;;;4993078;28;20245;-88
2023/06/17 11:56:11;;;;;;;31.50;30.20;;;33.10;22.70;;;;;;4995162;28;20186;-90
2023/06/17 11:58:40;;;;;;;32.10;30.55;;;33.60;21.80;;;;;;4994461;28;20182;-90
2023/06/17 12:01:08;;;;;;;32.30;31.00;;;33.60;22.00;;;;;;4997245;28;20221;-90
2023/06/17 12:03:34;;;;;;;33.00;31.60;;;33.90;22.00;;;;;;4996269;28;20277;-90
2023/06/17 12:06:03;;;;;;;32.70;31.48;;;34.00;22.00;;;;;;4995829;28;20191;-89
2023/06/17 12:08:36;;;;;;;33.08;31.77;;;33.80;21.60;;;;;;4984957;28;20675;-87
2023/06/17 12:11:07;;;;;;;31.30;30.00;;;33.90;21.20;;;;;;4976353;28;20183;-87
2023/06/17 12:13:40;;;;;;;29.70;28.50;;;33.40;22.50;;;;;;4976173;28;20206;-88
2023/06/17 12:16:10;;;;;;;31.65;30.35;;;33.10;22.30;;;;;;4976824;28;20175;-89
2023/06/17 12:18:36;;;;;;;32.55;31.15;;;33.40;21.30;;;;;;4981313;28;20262;-88
2023/06/17 12:21:09;;;;;;;34.50;32.95;;;33.80;21.10;;;;;;4994136;28;20205;-89
2023/06/17 12:23:35;;;;;;;34.20;32.88;;;34.10;21.00;;;;;;4992650;28;20222;-89
2023/06/17 12:26:01;;;;;;;33.55;32.25;;;34.50;20.50;;;;;;4993762;28;20181;-88
2023/06/17 12:28:27;;;;;;;33.97;32.25;;;34.70;21.30;;;;;;4993465;28;20197;-87